sensor_id;sensor_type;location;lat;lon;timestamp;temperature;humidity
19496;DHT22;9888;48.606;9.630;2022-11-03T00:02:10;2.20;99.90
19496;DHT22;9888;48.606;9.630;2022-11-03T00:04:38;2.20;99.90
19496;DHT22;9888;48.606;9.630;2022-11-03T00:07:04;2.20;99.90
19496;DHT22;9888;48.606;9.630;2022-11-03T00:09:32;2.10;99.90
19496;DHT22;9888;48.606;9.630;2022-11-03T00:12:01;2.20;99.90
19496;DHT22;9888;48.606;9.630;2022-11-03T00:14:28;2.20;99.90
19496;DHT22;9888;48.606;9.630;2022-11-03T00:16:55;2.20;99.90
19496;DHT22;9888;48.606;9.630;2022-11-03T00:19:22;2.20;99.90
19496;DHT22;9888;48.606;9.630;2022-11-03T00:21:49;2.20;99.90
19496;DHT22;9888;48.606;9.630;2022-11-03T00:24:18;2.20;99.90
19496;DHT22;9888;48.606;9.630;2022-11-03T00:26:46;2.20;99.90
19496;DHT22;9888;48.606;9.630;2022-11-03T00:29:15;2.20;99.90
19496;DHT22;9888;48.606;9.630;2022-11-03T00:31:43;2.20;99.90
19496;DHT22;9888;48.606;9.630;2022-11-03T00:34:11;2.10;99.90
19496;DHT22;9888;48.606;9.630;2022-11-03T00:36:40;2.20;99.90
19496;DHT22;9888;48.606;9.630;2022-11-03T00:39:09;2.20;99.90
19496;DHT22;9888;48.606;9.630;2022-11-03T00:41:36;2.10;99.90
19496;DHT22;9888;48.606;9.630;2022-11-03T00:44:04;2.10;99.90
19496;DHT22;9888;48.606;9.630;2022-11-03T00:46:34;2.10;99.90
19496;DHT22;9888;48.606;9.630;2022-11-03T00:49:03;2.00;99.90
19496;DHT22;9888;48.606;9.630;2022-11-03T00:51:32;2.00;99.90
19496;DHT22;9888;48.606;9.630;2022-11-03T00:54:03;2.10;99.90
19496;DHT22;9888;48.606;9.630;2022-11-03T00:56:32;2.00;99.90
19496;DHT22;9888;48.606;9.630;2022-11-03T00:59:00;2.00;99.90
19496;DHT22;9888;48.606;9.630;2022-11-03T01:01:37;2.00;99.90
19496;DHT22;9888;48.606;9.630;2022-11-03T01:04:08;2.00;99.90
19496;DHT22;9888;48.606;9.630;2022-11-03T01:06:54;2.10;99.90
19496;DHT22;9888;48.606;9.630;2022-11-03T01:09:33;2.20;99.90
19496;DHT22;9888;48.606;9.630;2022-11-03T01:12:09;2.10;99.90
19496;DHT22;9888;48.606;9.630;2022-11-03T01:14:40;2.10;99.90
19496;DHT22;9888;48.606;9.630;2022-11-03T01:17:09;2.00;99.90
19496;DHT22;9888;48.606;9.630;2022-11-03T01:19:37;2.00;99.90
19496;DHT22;9888;48.606;9.630;2022-11-03T01:22:05;2.00;99.90
19496;DHT22;9888;48.606;9.630;2022-11-03T01:24:33;1.90;99.90
19496;DHT22;9888;48.606;9.630;2022-11-03T01:27:00;1.90;99.90
19496;DHT22;9888;48.606;9.630;2022-11-03T01:29:28;2.00;99.90
19496;DHT22;9888;48.606;9.630;2022-11-03T01:31:55;2.10;99.90
19496;DHT22;9888;48.606;9.630;2022-11-03T01:34:22;2.10;99.90
19496;DHT22;9888;48.606;9.630;2022-11-03T01:36:50;2.10;99.90
19496;DHT22;9888;48.606;9.630;2022-11-03T01:39:18;2.10;99.90
19496;DHT22;9888;48.606;9.630;2022-11-03T01:41:48;2.10;99.90
19496;DHT22;9888;48.606;9.630;2022-11-03T01:52:31;2.10;99.90
19496;DHT22;9888;48.606;9.630;2022-11-03T01:55:23;2.30;99.90
19496;DHT22;9888;48.606;9.630;2022-11-03T01:57:57;2.30;99.90
19496;DHT22;9888;48.606;9.630;2022-11-03T02:00:26;2.20;99.90
19496;DHT22;9888;48.606;9.630;2022-11-03T02:02:53;2.30;99.90
19496;DHT22;9888;48.606;9.630;2022-11-03T02:05:23;2.20;99.90
19496;DHT22;9888;48.606;9.630;2022-11-03T02:07:57;2.20;99.90
19496;DHT22;9888;48.606;9.630;2022-11-03T02:10:26;2.20;99.90
19496;DHT22;9888;48.606;9.630;2022-11-03T02:12:54;2.20;99.90
19496;DHT22;9888;48.606;9.630;2022-11-03T02:15:22;2.20;99.90
19496;DHT22;9888;48.606;9.630;2022-11-03T02:17:51;2.10;99.90
19496;DHT22;9888;48.606;9.630;2022-11-03T02:20:24;2.10;99.90
19496;DHT22;9888;48.606;9.630;2022-11-03T02:23:43;2.10;99.90
19496;DHT22;9888;48.606;9.630;2022-11-03T02:26:14;2.10;99.90
19496;DHT22;9888;48.606;9.630;2022-11-03T02:28:42;2.10;99.90
19496;DHT22;9888;48.606;9.630;2022-11-03T02:37:01;2.30;99.90
19496;DHT22;9888;48.606;9.630;2022-11-03T02:39:35;2.30;99.90
19496;DHT22;9888;48.606;9.630;2022-11-03T02:42:04;2.30;99.90
19496;DHT22;9888;48.606;9.630;2022-11-03T02:44:33;2.40;99.90
19496;DHT22;9888;48.606;9.630;2022-11-03T02:47:06;2.40;99.90
19496;DHT22;9888;48.606;9.630;2022-11-03T02:49:40;2.40;99.90
19496;DHT22;9888;48.606;9.630;2022-11-03T02:52:36;2.30;99.90
19496;DHT22;9888;48.606;9.630;2022-11-03T03:00:45;2.20;99.90
19496;DHT22;9888;48.606;9.630;2022-11-03T03:03:30;2.10;99.90
19496;DHT22;9888;48.606;9.630;2022-11-03T03:06:07;2.10;99.90
19496;DHT22;9888;48.606;9.630;2022-11-03T03:08:39;2.10;99.90
19496;DHT22;9888;48.606;9.630;2022-11-03T03:11:09;2.10;99.90
19496;DHT22;9888;48.606;9.630;2022-11-03T03:13:39;2.00;99.90
19496;DHT22;9888;48.606;9.630;2022-11-03T03:16:14;2.10;99.90
19496;DHT22;9888;48.606;9.630;2022-11-03T03:21:28;2.10;99.90
19496;DHT22;9888;48.606;9.630;2022-11-03T03:24:09;2.20;99.90
19496;DHT22;9888;48.606;9.630;2022-11-03T03:26:47;2.20;99.90
19496;DHT22;9888;48.606;9.630;2022-11-03T03:29:21;2.20;99.90
19496;DHT22;9888;48.606;9.630;2022-11-03T03:31:54;2.20;99.90
19496;DHT22;9888;48.606;9.630;2022-11-03T03:34:25;2.30;99.90
19496;DHT22;9888;48.606;9.630;2022-11-03T03:36:55;2.30;99.90
19496;DHT22;9888;48.606;9.630;2022-11-03T03:39:27;2.30;99.90
19496;DHT22;9888;48.606;9.630;2022-11-03T03:41:57;2.40;99.90
19496;DHT22;9888;48.606;9.630;2022-11-03T03:44:25;2.40;99.90
19496;DHT22;9888;48.606;9.630;2022-11-03T03:47:05;2.40;99.90
19496;DHT22;9888;48.606;9.630;2022-11-03T03:49:33;2.30;99.90
19496;DHT22;9888;48.606;9.630;2022-11-03T03:52:00;2.40;99.90
19496;DHT22;9888;48.606;9.630;2022-11-03T03:54:33;2.40;99.90
19496;DHT22;9888;48.606;9.630;2022-11-03T03:57:08;2.40;99.90
19496;DHT22;9888;48.606;9.630;2022-11-03T03:59:55;2.40;99.90
19496;DHT22;9888;48.606;9.630;2022-11-03T04:02:24;2.30;99.90
19496;DHT22;9888;48.606;9.630;2022-11-03T04:04:52;2.30;99.90
19496;DHT22;9888;48.606;9.630;2022-11-03T04:07:19;2.30;99.90
19496;DHT22;9888;48.606;9.630;2022-11-03T04:10:06;2.30;99.90
19496;DHT22;9888;48.606;9.630;2022-11-03T04:12:33;2.30;99.90
19496;DHT22;9888;48.606;9.630;2022-11-03T04:15:19;2.40;99.90
19496;DHT22;9888;48.606;9.630;2022-11-03T04:18:06;2.50;99.90
19496;DHT22;9888;48.606;9.630;2022-11-03T04:20:52;2.60;99.90
19496;DHT22;9888;48.606;9.630;2022-11-03T04:23:37;2.60;99.90
19496;DHT22;9888;48.606;9.630;2022-11-03T04:26:18;2.60;99.90
19496;DHT22;9888;48.606;9.630;2022-11-03T04:28:52;2.60;99.90
19496;DHT22;9888;48.606;9.630;2022-11-03T04:31:20;2.60;99.90
19496;DHT22;9888;48.606;9.630;2022-11-03T04:33:48;2.60;99.90
19496;DHT22;9888;48.606;9.630;2022-11-03T04:36:19;2.50;99.90
19496;DHT22;9888;48.606;9.630;2022-11-03T04:38:47;2.80;99.90
19496;DHT22;9888;48.606;9.630;2022-11-03T04:41:21;2.80;99.90
19496;DHT22;9888;48.606;9.630;2022-11-03T04:43:51;2.80;99.90
19496;DHT22;9888;48.606;9.630;2022-11-03T04:46:26;2.80;99.90
19496;DHT22;9888;48.606;9.630;2022-11-03T04:48:58;2.80;99.90
19496;DHT22;9888;48.606;9.630;2022-11-03T04:51:29;2.90;99.90
19496;DHT22;9888;48.606;9.630;2022-11-03T04:54:14;2.90;99.90
19496;DHT22;9888;48.606;9.630;2022-11-03T04:56:44;2.90;99.90
19496;DHT22;9888;48.606;9.630;2022-11-03T04:59:19;3.10;99.90
19496;DHT22;9888;48.606;9.630;2022-11-03T05:01:48;3.50;99.90
19496;DHT22;9888;48.606;9.630;2022-11-03T05:04:18;4.10;99.90
19496;DHT22;9888;48.606;9.630;2022-11-03T05:10:18;4.70;99.90
19496;DHT22;9888;48.606;9.630;2022-11-03T05:12:51;4.60;99.90
19496;DHT22;9888;48.606;9.630;2022-11-03T05:15:37;4.90;99.90
19496;DHT22;9888;48.606;9.630;2022-11-03T05:18:15;5.00;99.90
19496;DHT22;9888;48.606;9.630;2022-11-03T05:21:00;5.00;99.90
19496;DHT22;9888;48.606;9.630;2022-11-03T05:23:31;5.20;99.90
19496;DHT22;9888;48.606;9.630;2022-11-03T05:26:05;5.20;99.90
19496;DHT22;9888;48.606;9.630;2022-11-03T05:28:40;5.50;99.90
19496;DHT22;9888;48.606;9.630;2022-11-03T05:31:28;5.70;99.90
19496;DHT22;9888;48.606;9.630;2022-11-03T05:33:59;5.70;99.90
19496;DHT22;9888;48.606;9.630;2022-11-03T05:36:29;5.70;99.90
19496;DHT22;9888;48.606;9.630;2022-11-03T05:41:46;5.70;99.90
19496;DHT22;9888;48.606;9.630;2022-11-03T05:44:36;5.80;99.90
19496;DHT22;9888;48.606;9.630;2022-11-03T05:47:23;5.90;99.90
19496;DHT22;9888;48.606;9.630;2022-11-03T05:49:55;5.80;99.90
19496;DHT22;9888;48.606;9.630;2022-11-03T05:52:26;5.70;99.90
19496;DHT22;9888;48.606;9.630;2022-11-03T05:54:58;5.60;99.90
19496;DHT22;9888;48.606;9.630;2022-11-03T05:57:38;5.60;99.90
19496;DHT22;9888;48.606;9.630;2022-11-03T06:00:18;5.80;99.90
19496;DHT22;9888;48.606;9.630;2022-11-03T06:02:54;5.80;99.90
19496;DHT22;9888;48.606;9.630;2022-11-03T06:05:25;5.90;99.90
19496;DHT22;9888;48.606;9.630;2022-11-03T06:07:56;6.00;99.90
19496;DHT22;9888;48.606;9.630;2022-11-03T06:10:28;6.10;99.90
19496;DHT22;9888;48.606;9.630;2022-11-03T06:13:01;6.10;99.90
19496;DHT22;9888;48.606;9.630;2022-11-03T06:15:31;6.20;99.90
19496;DHT22;9888;48.606;9.630;2022-11-03T06:18:39;6.10;99.90
19496;DHT22;9888;48.606;9.630;2022-11-03T06:21:21;6.30;99.90
19496;DHT22;9888;48.606;9.630;2022-11-03T06:23:50;6.30;99.90
19496;DHT22;9888;48.606;9.630;2022-11-03T06:26:24;6.30;99.90
19496;DHT22;9888;48.606;9.630;2022-11-03T06:28:55;6.30;99.90
19496;DHT22;9888;48.606;9.630;2022-11-03T06:31:31;6.30;99.90
19496;DHT22;9888;48.606;9.630;2022-11-03T06:34:00;6.30;99.90
19496;DHT22;9888;48.606;9.630;2022-11-03T06:36:31;6.40;99.90
19496;DHT22;9888;48.606;9.630;2022-11-03T06:39:02;6.30;99.90
19496;DHT22;9888;48.606;9.630;2022-11-03T06:41:35;6.30;99.90
19496;DHT22;9888;48.606;9.630;2022-11-03T06:44:25;6.30;99.90
19496;DHT22;9888;48.606;9.630;2022-11-03T06:47:13;6.40;99.90
19496;DHT22;9888;48.606;9.630;2022-11-03T06:49:42;6.40;99.90
19496;DHT22;9888;48.606;9.630;2022-11-03T06:52:36;6.40;99.90
19496;DHT22;9888;48.606;9.630;2022-11-03T06:57:43;6.50;99.90
19496;DHT22;9888;48.606;9.630;2022-11-03T07:00:25;6.60;99.90
19496;DHT22;9888;48.606;9.630;2022-11-03T07:03:26;6.70;99.90
19496;DHT22;9888;48.606;9.630;2022-11-03T07:06:03;6.80;99.90
19496;DHT22;9888;48.606;9.630;2022-11-03T07:08:43;6.80;99.90
19496;DHT22;9888;48.606;9.630;2022-11-03T07:11:25;6.90;99.90
19496;DHT22;9888;48.606;9.630;2022-11-03T07:14:01;7.10;99.90
19496;DHT22;9888;48.606;9.630;2022-11-03T07:16:45;7.30;99.90
19496;DHT22;9888;48.606;9.630;2022-11-03T07:21:49;7.90;99.90
19496;DHT22;9888;48.606;9.630;2022-11-03T07:24:29;8.40;99.90
19496;DHT22;9888;48.606;9.630;2022-11-03T07:27:26;8.90;99.90
19496;DHT22;9888;48.606;9.630;2022-11-03T07:30:21;9.50;99.90
19496;DHT22;9888;48.606;9.630;2022-11-03T07:36:07;10.70;99.90
19496;DHT22;9888;48.606;9.630;2022-11-03T07:38:38;11.10;99.90
19496;DHT22;9888;48.606;9.630;2022-11-03T07:41:08;11.10;99.90
19496;DHT22;9888;48.606;9.630;2022-11-03T07:43:54;10.60;99.90
19496;DHT22;9888;48.606;9.630;2022-11-03T07:46:24;10.40;99.90
19496;DHT22;9888;48.606;9.630;2022-11-03T07:48:53;10.90;99.90
19496;DHT22;9888;48.606;9.630;2022-11-03T07:51:24;12.10;99.90
19496;DHT22;9888;48.606;9.630;2022-11-03T07:54:07;12.60;99.90
19496;DHT22;9888;48.606;9.630;2022-11-03T07:56:57;14.00;99.90
19496;DHT22;9888;48.606;9.630;2022-11-03T07:59:51;15.20;99.90
19496;DHT22;9888;48.606;9.630;2022-11-03T08:02:33;15.70;99.90
19496;DHT22;9888;48.606;9.630;2022-11-03T08:05:00;15.40;99.90
19496;DHT22;9888;48.606;9.630;2022-11-03T08:07:29;14.90;99.90
19496;DHT22;9888;48.606;9.630;2022-11-03T08:09:57;14.70;99.90
19496;DHT22;9888;48.606;9.630;2022-11-03T08:12:24;14.80;99.90
19496;DHT22;9888;48.606;9.630;2022-11-03T08:14:51;15.20;99.90
19496;DHT22;9888;48.606;9.630;2022-11-03T08:17:18;15.40;99.90
19496;DHT22;9888;48.606;9.630;2022-11-03T08:19:45;15.80;99.90
19496;DHT22;9888;48.606;9.630;2022-11-03T08:22:13;16.40;99.90
19496;DHT22;9888;48.606;9.630;2022-11-03T08:24:40;16.70;99.90
19496;DHT22;9888;48.606;9.630;2022-11-03T08:27:06;16.20;99.90
19496;DHT22;9888;48.606;9.630;2022-11-03T08:29:34;16.10;99.90
19496;DHT22;9888;48.606;9.630;2022-11-03T08:32:01;17.00;99.90
19496;DHT22;9888;48.606;9.630;2022-11-03T08:34:28;17.70;99.90
19496;DHT22;9888;48.606;9.630;2022-11-03T08:36:58;18.20;99.90
19496;DHT22;9888;48.606;9.630;2022-11-03T08:39:25;19.10;99.90
19496;DHT22;9888;48.606;9.630;2022-11-03T08:41:53;19.50;99.90
19496;DHT22;9888;48.606;9.630;2022-11-03T08:44:22;19.70;99.90
19496;DHT22;9888;48.606;9.630;2022-11-03T08:46:51;19.80;99.90
19496;DHT22;9888;48.606;9.630;2022-11-03T08:49:20;20.10;99.90
19496;DHT22;9888;48.606;9.630;2022-11-03T08:51:47;20.10;99.90
19496;DHT22;9888;48.606;9.630;2022-11-03T08:54:15;20.20;99.90
19496;DHT22;9888;48.606;9.630;2022-11-03T08:56:44;21.40;99.90
19496;DHT22;9888;48.606;9.630;2022-11-03T08:59:14;21.50;99.90
19496;DHT22;9888;48.606;9.630;2022-11-03T09:01:44;21.40;99.90
19496;DHT22;9888;48.606;9.630;2022-11-03T09:04:11;21.10;99.90
19496;DHT22;9888;48.606;9.630;2022-11-03T09:06:41;21.20;99.90
19496;DHT22;9888;48.606;9.630;2022-11-03T09:09:08;21.50;99.90
19496;DHT22;9888;48.606;9.630;2022-11-03T09:11:36;21.80;99.90
19496;DHT22;9888;48.606;9.630;2022-11-03T09:14:03;21.80;99.90
19496;DHT22;9888;48.606;9.630;2022-11-03T09:16:32;21.40;99.90
19496;DHT22;9888;48.606;9.630;2022-11-03T09:19:00;21.20;99.90
19496;DHT22;9888;48.606;9.630;2022-11-03T09:21:28;20.90;99.90
19496;DHT22;9888;48.606;9.630;2022-11-03T09:23:55;20.40;99.90
19496;DHT22;9888;48.606;9.630;2022-11-03T09:29:46;19.30;99.90
19496;DHT22;9888;48.606;9.630;2022-11-03T09:32:14;18.80;99.90
19496;DHT22;9888;48.606;9.630;2022-11-03T09:34:42;18.70;99.90
19496;DHT22;9888;48.606;9.630;2022-11-03T09:37:11;19.60;99.90
19496;DHT22;9888;48.606;9.630;2022-11-03T09:39:40;20.50;99.90
19496;DHT22;9888;48.606;9.630;2022-11-03T09:42:07;21.60;99.90
19496;DHT22;9888;48.606;9.630;2022-11-03T09:44:36;23.30;99.90
19496;DHT22;9888;48.606;9.630;2022-11-03T09:47:04;24.60;99.90
19496;DHT22;9888;48.606;9.630;2022-11-03T09:49:33;25.80;99.90
19496;DHT22;9888;48.606;9.630;2022-11-03T09:52:03;26.40;99.90
19496;DHT22;9888;48.606;9.630;2022-11-03T09:54:31;27.10;99.90
19496;DHT22;9888;48.606;9.630;2022-11-03T09:57:08;26.70;99.90
19496;DHT22;9888;48.606;9.630;2022-11-03T09:59:37;26.90;99.90
19496;DHT22;9888;48.606;9.630;2022-11-03T10:02:28;27.10;99.90
19496;DHT22;9888;48.606;9.630;2022-11-03T10:04:58;26.60;99.90
19496;DHT22;9888;48.606;9.630;2022-11-03T10:07:27;26.40;99.90
19496;DHT22;9888;48.606;9.630;2022-11-03T10:09:58;25.60;99.90
19496;DHT22;9888;48.606;9.630;2022-11-03T10:12:28;24.40;99.90
19496;DHT22;9888;48.606;9.630;2022-11-03T10:14:59;22.90;99.90
19496;DHT22;9888;48.606;9.630;2022-11-03T10:17:29;21.50;99.90
19496;DHT22;9888;48.606;9.630;2022-11-03T10:19:57;20.60;99.90
19496;DHT22;9888;48.606;9.630;2022-11-03T10:22:25;19.60;99.90
19496;DHT22;9888;48.606;9.630;2022-11-03T10:28:24;18.40;99.90
19496;DHT22;9888;48.606;9.630;2022-11-03T10:30:54;18.00;99.90
19496;DHT22;9888;48.606;9.630;2022-11-03T10:33:49;17.70;99.90
19496;DHT22;9888;48.606;9.630;2022-11-03T10:38:47;17.30;99.90
19496;DHT22;9888;48.606;9.630;2022-11-03T10:41:27;17.10;99.90
19496;DHT22;9888;48.606;9.630;2022-11-03T10:46:35;16.90;99.90
19496;DHT22;9888;48.606;9.630;2022-11-03T10:51:34;16.90;99.90
19496;DHT22;9888;48.606;9.630;2022-11-03T10:54:04;16.90;99.90
19496;DHT22;9888;48.606;9.630;2022-11-03T10:56:33;16.80;99.90
19496;DHT22;9888;48.606;9.630;2022-11-03T10:59:02;16.80;99.90
19496;DHT22;9888;48.606;9.630;2022-11-03T11:01:29;16.70;99.90
19496;DHT22;9888;48.606;9.630;2022-11-03T11:03:57;16.80;99.90
19496;DHT22;9888;48.606;9.630;2022-11-03T11:06:29;16.90;99.90
19496;DHT22;9888;48.606;9.630;2022-11-03T11:09:01;17.10;99.90
19496;DHT22;9888;48.606;9.630;2022-11-03T11:11:31;17.40;99.90
19496;DHT22;9888;48.606;9.630;2022-11-03T11:16:54;17.80;99.90
19496;DHT22;9888;48.606;9.630;2022-11-03T11:19:24;18.10;99.90
19496;DHT22;9888;48.606;9.630;2022-11-03T11:35:19;18.70;99.90
19496;DHT22;9888;48.606;9.630;2022-11-03T11:41:06;17.90;99.90
19496;DHT22;9888;48.606;9.630;2022-11-03T11:43:36;17.50;99.90
19496;DHT22;9888;48.606;9.630;2022-11-03T11:46:32;17.30;99.90
19496;DHT22;9888;48.606;9.630;2022-11-03T11:51:39;17.00;99.90
19496;DHT22;9888;48.606;9.630;2022-11-03T11:54:18;16.90;99.90
19496;DHT22;9888;48.606;9.630;2022-11-03T11:56:48;17.00;99.90
19496;DHT22;9888;48.606;9.630;2022-11-03T11:59:21;17.00;99.90
19496;DHT22;9888;48.606;9.630;2022-11-03T12:01:54;17.30;99.90
19496;DHT22;9888;48.606;9.630;2022-11-03T12:04:29;17.50;99.90
19496;DHT22;9888;48.606;9.630;2022-11-03T12:06:58;17.80;99.90
19496;DHT22;9888;48.606;9.630;2022-11-03T12:09:27;18.00;99.90
19496;DHT22;9888;48.606;9.630;2022-11-03T12:11:57;18.10;99.90
19496;DHT22;9888;48.606;9.630;2022-11-03T12:17:46;17.40;99.90
19496;DHT22;9888;48.606;9.630;2022-11-03T12:20:46;17.80;99.90
19496;DHT22;9888;48.606;9.630;2022-11-03T12:23:33;18.00;99.90
19496;DHT22;9888;48.606;9.630;2022-11-03T12:26:04;18.10;99.90
19496;DHT22;9888;48.606;9.630;2022-11-03T12:28:33;18.00;99.90
19496;DHT22;9888;48.606;9.630;2022-11-03T12:31:02;17.80;99.90
19496;DHT22;9888;48.606;9.630;2022-11-03T12:33:30;17.70;99.90
19496;DHT22;9888;48.606;9.630;2022-11-03T12:35:57;17.70;99.90
19496;DHT22;9888;48.606;9.630;2022-11-03T12:38:52;17.50;99.90
19496;DHT22;9888;48.606;9.630;2022-11-03T12:41:20;17.30;99.90
19496;DHT22;9888;48.606;9.630;2022-11-03T12:43:49;17.20;99.90
19496;DHT22;9888;48.606;9.630;2022-11-03T12:49:38;16.90;99.90
19496;DHT22;9888;48.606;9.630;2022-11-03T12:52:05;16.70;99.90
19496;DHT22;9888;48.606;9.630;2022-11-03T12:54:34;16.50;99.90
19496;DHT22;9888;48.606;9.630;2022-11-03T12:57:02;16.40;99.90
19496;DHT22;9888;48.606;9.630;2022-11-03T12:59:30;16.30;99.90
19496;DHT22;9888;48.606;9.630;2022-11-03T13:01:58;16.10;99.90
19496;DHT22;9888;48.606;9.630;2022-11-03T13:04:26;16.00;99.90
19496;DHT22;9888;48.606;9.630;2022-11-03T13:06:53;16.00;99.90
19496;DHT22;9888;48.606;9.630;2022-11-03T13:09:23;16.10;99.90
19496;DHT22;9888;48.606;9.630;2022-11-03T13:12:26;16.00;99.90
19496;DHT22;9888;48.606;9.630;2022-11-03T13:14:59;16.10;99.90
19496;DHT22;9888;48.606;9.630;2022-11-03T13:17:26;16.20;99.90
19496;DHT22;9888;48.606;9.630;2022-11-03T13:19:54;16.40;99.90
19496;DHT22;9888;48.606;9.630;2022-11-03T13:22:23;16.50;99.90
19496;DHT22;9888;48.606;9.630;2022-11-03T13:24:51;16.60;99.90
19496;DHT22;9888;48.606;9.630;2022-11-03T13:27:18;16.60;99.90
19496;DHT22;9888;48.606;9.630;2022-11-03T13:29:45;16.50;99.90
19496;DHT22;9888;48.606;9.630;2022-11-03T13:32:13;16.40;99.90
19496;DHT22;9888;48.606;9.630;2022-11-03T13:34:42;16.20;99.90
19496;DHT22;9888;48.606;9.630;2022-11-03T13:37:09;16.00;99.90
19496;DHT22;9888;48.606;9.630;2022-11-03T13:39:36;15.90;99.90
19496;DHT22;9888;48.606;9.630;2022-11-03T13:42:03;15.70;99.90
19496;DHT22;9888;48.606;9.630;2022-11-03T13:44:33;15.50;99.90
19496;DHT22;9888;48.606;9.630;2022-11-03T13:47:00;15.30;99.90
19496;DHT22;9888;48.606;9.630;2022-11-03T13:49:27;15.10;99.90
19496;DHT22;9888;48.606;9.630;2022-11-03T13:51:59;15.00;99.90
19496;DHT22;9888;48.606;9.630;2022-11-03T13:54:27;14.90;99.90
19496;DHT22;9888;48.606;9.630;2022-11-03T13:56:54;14.80;99.90
19496;DHT22;9888;48.606;9.630;2022-11-03T13:59:21;14.60;99.90
19496;DHT22;9888;48.606;9.630;2022-11-03T14:01:48;14.50;99.90
19496;DHT22;9888;48.606;9.630;2022-11-03T14:04:17;14.40;99.90
19496;DHT22;9888;48.606;9.630;2022-11-03T14:06:44;14.30;99.90
19496;DHT22;9888;48.606;9.630;2022-11-03T14:09:13;14.30;99.90
19496;DHT22;9888;48.606;9.630;2022-11-03T14:11:41;14.20;99.90
19496;DHT22;9888;48.606;9.630;2022-11-03T14:14:27;14.00;99.90
19496;DHT22;9888;48.606;9.630;2022-11-03T14:16:54;13.90;99.90
19496;DHT22;9888;48.606;9.630;2022-11-03T14:19:22;13.90;99.90
19496;DHT22;9888;48.606;9.630;2022-11-03T14:21:54;13.80;99.90
19496;DHT22;9888;48.606;9.630;2022-11-03T14:24:22;13.70;99.90
19496;DHT22;9888;48.606;9.630;2022-11-03T14:26:50;13.70;99.90
19496;DHT22;9888;48.606;9.630;2022-11-03T14:29:17;13.60;99.90
19496;DHT22;9888;48.606;9.630;2022-11-03T14:31:44;13.50;99.90
19496;DHT22;9888;48.606;9.630;2022-11-03T14:34:26;13.50;99.90
19496;DHT22;9888;48.606;9.630;2022-11-03T14:36:54;13.40;99.90
19496;DHT22;9888;48.606;9.630;2022-11-03T14:39:22;13.30;99.90
19496;DHT22;9888;48.606;9.630;2022-11-03T14:41:52;13.20;99.90
19496;DHT22;9888;48.606;9.630;2022-11-03T14:44:33;13.10;99.90
19496;DHT22;9888;48.606;9.630;2022-11-03T14:47:08;13.10;99.90
19496;DHT22;9888;48.606;9.630;2022-11-03T14:49:38;13.00;99.90
19496;DHT22;9888;48.606;9.630;2022-11-03T14:52:07;12.90;99.90
19496;DHT22;9888;48.606;9.630;2022-11-03T14:54:34;12.90;99.90
19496;DHT22;9888;48.606;9.630;2022-11-03T14:57:02;12.80;99.90
19496;DHT22;9888;48.606;9.630;2022-11-03T14:59:30;12.70;99.90
19496;DHT22;9888;48.606;9.630;2022-11-03T15:02:01;12.60;99.90
19496;DHT22;9888;48.606;9.630;2022-11-03T15:04:28;12.50;99.90
19496;DHT22;9888;48.606;9.630;2022-11-03T15:06:55;12.50;99.90
19496;DHT22;9888;48.606;9.630;2022-11-03T15:09:22;12.40;99.90
19496;DHT22;9888;48.606;9.630;2022-11-03T15:11:51;12.30;99.90
19496;DHT22;9888;48.606;9.630;2022-11-03T15:14:18;12.30;99.90
19496;DHT22;9888;48.606;9.630;2022-11-03T15:16:46;12.10;99.90
19496;DHT22;9888;48.606;9.630;2022-11-03T15:19:13;12.00;99.90
19496;DHT22;9888;48.606;9.630;2022-11-03T15:21:40;11.90;99.90
19496;DHT22;9888;48.606;9.630;2022-11-03T15:24:08;11.90;99.90
19496;DHT22;9888;48.606;9.630;2022-11-03T15:26:36;11.80;99.90
19496;DHT22;9888;48.606;9.630;2022-11-03T15:29:03;11.70;99.90
19496;DHT22;9888;48.606;9.630;2022-11-03T15:31:30;11.70;99.90
19496;DHT22;9888;48.606;9.630;2022-11-03T15:33:57;11.60;99.90
19496;DHT22;9888;48.606;9.630;2022-11-03T15:36:24;11.60;99.90
19496;DHT22;9888;48.606;9.630;2022-11-03T15:38:52;11.60;99.90
19496;DHT22;9888;48.606;9.630;2022-11-03T15:41:19;11.50;99.90
19496;DHT22;9888;48.606;9.630;2022-11-03T15:43:48;11.50;99.90
19496;DHT22;9888;48.606;9.630;2022-11-03T15:46:17;11.50;99.90
19496;DHT22;9888;48.606;9.630;2022-11-03T15:48:44;11.50;99.90
19496;DHT22;9888;48.606;9.630;2022-11-03T15:51:12;11.40;99.90
19496;DHT22;9888;48.606;9.630;2022-11-03T15:53:38;11.50;99.90
19496;DHT22;9888;48.606;9.630;2022-11-03T15:56:08;11.50;99.90
19496;DHT22;9888;48.606;9.630;2022-11-03T15:58:36;11.50;99.90
19496;DHT22;9888;48.606;9.630;2022-11-03T16:01:04;11.40;99.90
19496;DHT22;9888;48.606;9.630;2022-11-03T16:03:32;11.40;99.90
19496;DHT22;9888;48.606;9.630;2022-11-03T16:06:03;11.40;99.90
19496;DHT22;9888;48.606;9.630;2022-11-03T16:09:06;11.30;99.90
19496;DHT22;9888;48.606;9.630;2022-11-03T16:11:35;11.40;99.90
19496;DHT22;9888;48.606;9.630;2022-11-03T16:14:03;11.40;99.90
19496;DHT22;9888;48.606;9.630;2022-11-03T16:16:30;11.40;99.90
19496;DHT22;9888;48.606;9.630;2022-11-03T16:18:57;11.40;99.90
19496;DHT22;9888;48.606;9.630;2022-11-03T16:21:26;11.30;99.90
19496;DHT22;9888;48.606;9.630;2022-11-03T16:23:54;11.30;99.90
19496;DHT22;9888;48.606;9.630;2022-11-03T16:26:22;11.20;99.90
19496;DHT22;9888;48.606;9.630;2022-11-03T16:28:54;11.30;99.90
19496;DHT22;9888;48.606;9.630;2022-11-03T16:31:25;11.20;99.90
19496;DHT22;9888;48.606;9.630;2022-11-03T16:33:53;11.20;99.90
19496;DHT22;9888;48.606;9.630;2022-11-03T16:36:22;11.20;99.90
19496;DHT22;9888;48.606;9.630;2022-11-03T16:38:50;11.10;99.90
19496;DHT22;9888;48.606;9.630;2022-11-03T16:41:19;11.10;99.90
19496;DHT22;9888;48.606;9.630;2022-11-03T16:43:46;11.10;99.90
19496;DHT22;9888;48.606;9.630;2022-11-03T16:46:15;11.20;99.90
19496;DHT22;9888;48.606;9.630;2022-11-03T16:48:43;11.10;99.90
19496;DHT22;9888;48.606;9.630;2022-11-03T16:51:10;11.10;99.90
19496;DHT22;9888;48.606;9.630;2022-11-03T16:53:38;11.10;99.90
19496;DHT22;9888;48.606;9.630;2022-11-03T16:56:07;11.10;99.90
19496;DHT22;9888;48.606;9.630;2022-11-03T16:58:34;11.00;99.90
19496;DHT22;9888;48.606;9.630;2022-11-03T17:01:01;11.10;99.90
19496;DHT22;9888;48.606;9.630;2022-11-03T17:03:29;11.10;99.90
19496;DHT22;9888;48.606;9.630;2022-11-03T17:05:57;11.10;99.90
19496;DHT22;9888;48.606;9.630;2022-11-03T17:08:25;11.10;99.90
19496;DHT22;9888;48.606;9.630;2022-11-03T17:10:52;11.10;99.90
19496;DHT22;9888;48.606;9.630;2022-11-03T17:13:21;11.10;99.90
19496;DHT22;9888;48.606;9.630;2022-11-03T17:15:50;11.10;99.90
19496;DHT22;9888;48.606;9.630;2022-11-03T17:18:17;11.00;99.90
19496;DHT22;9888;48.606;9.630;2022-11-03T17:20:44;11.00;99.90
19496;DHT22;9888;48.606;9.630;2022-11-03T17:23:13;11.00;99.90
19496;DHT22;9888;48.606;9.630;2022-11-03T17:25:40;11.00;99.90
19496;DHT22;9888;48.606;9.630;2022-11-03T17:28:09;11.00;99.90
19496;DHT22;9888;48.606;9.630;2022-11-03T17:30:38;11.00;99.90
19496;DHT22;9888;48.606;9.630;2022-11-03T17:33:14;11.00;99.90
19496;DHT22;9888;48.606;9.630;2022-11-03T17:35:50;11.10;99.90
19496;DHT22;9888;48.606;9.630;2022-11-03T17:38:17;11.10;99.90
19496;DHT22;9888;48.606;9.630;2022-11-03T17:40:47;11.10;99.90
19496;DHT22;9888;48.606;9.630;2022-11-03T17:43:26;11.20;99.90